createdAt,value
2022-08-05T00:00:31.853Z,100014.97
2022-08-05T00:01:36.204Z,100014.6
2022-08-05T00:02:35.313Z,100017.7
2022-08-05T00:03:35.490Z,100019.31
2022-08-05T00:04:35.512Z,100018.31
2022-08-05T00:06:05.692Z,100015.88
2022-08-05T00:06:36.726Z,100015.2
2022-08-05T00:08:01.145Z,100015.09
2022-08-05T00:08:39.169Z,100017.98
2022-08-05T00:09:38.265Z,100019.8
2022-08-05T00:10:40.608Z,100016.58
2022-08-05T00:11:49.584Z,100015.23
2022-08-05T00:12:56.820Z,100017.59
2022-08-05T00:13:44.492Z,100012.48
2022-08-05T00:14:45.295Z,100014.32
2022-08-05T00:15:58.012Z,100010.36
2022-08-05T00:16:53.014Z,100008.73
2022-08-05T00:17:52.075Z,100009.55
2022-08-05T00:18:52.062Z,100002.92
2022-08-05T00:20:02.694Z,100004.92
2022-08-05T00:20:55.324Z,100001.05
2022-08-05T00:21:55.168Z,100006.01
2022-08-05T00:22:59.641Z,100006.17
2022-08-05T00:24:09.794Z,100001.2
2022-08-05T00:25:03.520Z,100003
2022-08-05T00:26:05.872Z,99999.25
2022-08-05T00:27:13.948Z,100003.2
2022-08-05T00:28:08.563Z,100005.5
2022-08-05T00:29:09.603Z,100000.25
2022-08-05T00:30:11.593Z,100000.23
2022-08-05T00:31:10.883Z,99994.67
2022-08-05T00:32:13.195Z,99995.28
2022-08-05T00:33:15.421Z,100001.41
2022-08-05T00:34:56.931Z,99998.64
2022-08-05T00:35:15.893Z,99999.8
2022-08-05T00:37:10.421Z,100002.16
2022-08-05T00:37:18.291Z,100002.38
2022-08-05T00:38:18.313Z,99999.33
2022-08-05T00:39:20.547Z,99996.89
2022-08-05T00:40:27.550Z,100004.44
2022-08-05T00:41:51.689Z,100003.09
2022-08-05T00:42:36.635Z,100000.7
2022-08-05T00:43:46.582Z,99999.06
2022-08-05T00:44:36.860Z,99998.55
2022-08-05T00:45:42.818Z,100000.37
2022-08-05T00:46:42.597Z,99996.25
2022-08-05T00:47:53.193Z,99993.32
2022-08-05T00:48:51.003Z,99995.41
2022-08-05T00:49:51.728Z,99994.64
2022-08-05T00:50:50.417Z,99992.22
2022-08-05T00:51:50.956Z,99995.73
2022-08-05T00:52:48.953Z,99994.97
2022-08-05T00:54:02.118Z,99998.14
2022-08-05T00:54:50.043Z,99995.85
2022-08-05T00:55:51.586Z,99993.62
2022-08-05T00:56:51.419Z,99995.7
2022-08-05T00:57:55.409Z,99990.61
2022-08-05T00:58:50.914Z,99993.95
2022-08-05T00:59:50.867Z,99992.95
2022-08-05T01:00:50.972Z,99990.34
2022-08-05T01:01:50.941Z,99988.84
2022-08-05T01:02:50.885Z,99987.83
2022-08-05T01:03:50.946Z,99988.3
2022-08-05T01:04:50.942Z,99989.09
2022-08-05T01:05:51.632Z,99988.58
2022-08-05T01:06:52.349Z,99988.51
2022-08-05T01:08:30.768Z,99988.73
2022-08-05T01:08:53.289Z,99989.14
2022-08-05T01:09:55.556Z,99987.52
2022-08-05T01:12:01.926Z,99983.62
2022-08-05T01:13:13.074Z,99982.76
2022-08-05T01:15:35.011Z,99986.77
2022-08-05T01:16:10.304Z,99981.88
2022-08-05T01:17:09.196Z,99978.27
2022-08-05T01:18:10.250Z,99975.71
2022-08-05T01:22:24.110Z,99975.64
2022-08-05T01:24:26.243Z,99972.16
2022-08-05T01:27:34.266Z,99969.72
2022-08-05T01:28:35.486Z,99970.84
2022-08-05T01:29:31.516Z,99968.83
2022-08-05T01:30:35.263Z,99969.05
2022-08-05T01:31:42.785Z,99971.01
2022-08-05T01:32:38.978Z,99969.13
2022-08-05T01:33:49.283Z,99965.41
2022-08-05T01:34:47.495Z,99967.12
2022-08-05T01:35:51.874Z,99967.45
2022-08-05T01:36:54.865Z,99965.77
2022-08-05T01:37:51.742Z,99966.78
2022-08-05T01:38:52.034Z,99968.14
2022-08-05T01:39:52.838Z,99964.17
2022-08-05T01:40:52.185Z,99962.41
2022-08-05T01:41:53.097Z,99960.19
2022-08-05T01:42:52.998Z,99959.34
2022-08-05T01:43:52.200Z,99959.6
2022-08-05T01:44:53.832Z,99956.94
2022-08-05T01:45:56.326Z,99957.72
2022-08-05T01:46:55.307Z,99953.86
2022-08-05T01:47:55.535Z,99958.14
2022-08-05T01:48:54.850Z,99953.78
2022-08-05T01:50:00.253Z,99952.55
2022-08-05T01:50:55.515Z,99954.91
2022-08-05T01:51:58.348Z,99956.72
2022-08-05T01:52:59.326Z,99953.89
2022-08-05T01:53:58.991Z,99954.55
2022-08-05T01:54:58.850Z,99951.19
2022-08-05T01:55:59.800Z,99955.44
2022-08-05T01:58:10.382Z,99954.92
2022-08-05T01:58:11.342Z,99954.88
2022-08-05T01:59:11.690Z,99957.92
2022-08-05T02:00:11.957Z,99957.43
2022-08-05T02:01:09.299Z,99958.59
2022-08-05T02:02:10.760Z,99958.2
2022-08-05T02:04:10.832Z,99955.98
2022-08-05T02:05:12.362Z,99961.41
2022-08-05T02:06:36.949Z,99956.48
2022-08-05T02:07:12.831Z,99953.85
2022-08-05T02:08:13.919Z,99955.09
2022-08-05T02:09:16.729Z,99953.9
2022-08-05T02:10:17.690Z,99952.13
2022-08-05T02:11:20.691Z,99952.87
2022-08-05T02:14:28.871Z,99951.48
2022-08-05T02:16:34.593Z,99950.41
2022-08-05T02:18:31.604Z,99952.29
2022-08-05T02:19:47.612Z,99949.58
2022-08-05T02:20:43.990Z,99949.15
2022-08-05T02:21:49.269Z,99953.67
2022-08-05T02:22:48.119Z,99954.45
2022-08-05T02:23:51.626Z,99952.5
2022-08-05T02:24:51.516Z,99953.78
2022-08-05T02:25:50.550Z,99950.77
2022-08-05T02:26:51.908Z,99944.45
2022-08-05T02:27:58.177Z,99947.02
2022-08-05T02:28:52.292Z,99943.87
2022-08-05T02:29:59.810Z,99941.56
2022-08-05T02:30:56.682Z,99939.35
2022-08-05T02:31:56.603Z,99938.44
2022-08-05T02:32:55.724Z,99939.48
2022-08-05T02:33:58.286Z,99944.53
2022-08-05T02:34:55.267Z,99943.99
2022-08-05T02:35:59.110Z,99943.47
2022-08-05T02:36:59.810Z,99946.95
2022-08-05T02:38:02.323Z,99948.05
2022-08-05T02:39:02.526Z,99950.97
2022-08-05T02:40:01.987Z,99955.49
2022-08-05T02:41:01.365Z,99950.5
2022-08-05T02:42:02.655Z,99954.47
2022-08-05T02:43:02.405Z,99949.66
2022-08-05T02:44:12.405Z,99955.37
2022-08-05T02:45:07.100Z,99954.89
2022-08-05T02:46:06.335Z,99958.44
2022-08-05T02:47:07.551Z,99955.67
2022-08-05T02:48:12.565Z,99954.98
2022-08-05T02:49:11.214Z,99950.82
2022-08-05T02:50:12.048Z,99954.3
2022-08-05T02:51:10.230Z,99956.68
2022-08-05T02:52:13.689Z,99951.84
2022-08-05T02:53:11.717Z,99951.3
2022-08-05T02:54:12.080Z,99956.3
2022-08-05T02:55:14.178Z,99950.81
2022-08-05T02:56:18.738Z,99951.13
2022-08-05T02:58:11.718Z,99952.8
2022-08-05T02:58:20.891Z,99951.92
2022-08-05T02:59:18.910Z,99953.08
2022-08-05T03:00:18.662Z,99955.34
2022-08-05T03:01:22.920Z,99952.05
2022-08-05T03:02:24.464Z,99952.84
2022-08-05T03:03:24.253Z,99953.5
2022-08-05T03:04:24.258Z,99953.94
2022-08-05T03:06:54.853Z,99951.12
2022-08-05T03:06:57.087Z,99953.05
2022-08-05T03:08:00.102Z,99949.83
2022-08-05T03:08:30.162Z,99952.72
2022-08-05T03:09:38.231Z,99950.04
2022-08-05T03:10:30.359Z,99948.05
2022-08-05T03:11:53.518Z,99947.72
2022-08-05T03:12:35.788Z,99945.88
2022-08-05T03:13:51.896Z,99945.39
2022-08-05T03:14:33.889Z,99942.83
2022-08-05T03:15:33.856Z,99942.3
2022-08-05T03:16:33.685Z,99951.05
2022-08-05T03:17:33.917Z,99945.23
2022-08-05T03:18:38.558Z,99949.25
2022-08-05T03:19:38.636Z,99949.34
2022-08-05T03:20:38.747Z,99946.53
2022-08-05T03:21:41.690Z,99945.13
2022-08-05T03:22:44.018Z,99946.95
2022-08-05T03:23:42.901Z,99947.19
2022-08-05T03:24:43.079Z,99946.46
2022-08-05T03:26:04.743Z,99942.61
2022-08-05T03:26:49.316Z,99942.08
2022-08-05T03:27:59.236Z,99947.42
2022-08-05T03:28:47.571Z,99948.27
2022-08-05T03:30:07.305Z,99948.78
2022-08-05T03:30:49.128Z,99946.85
2022-08-05T03:31:56.009Z,99945.31
2022-08-05T03:32:49.274Z,99946.58
2022-08-05T03:33:52.898Z,99948.67
2022-08-05T03:34:51.017Z,99945.73
2022-08-05T03:35:51.687Z,99947.79
2022-08-05T03:36:50.293Z,99952.44
2022-08-05T03:37:49.802Z,99954.7
2022-08-05T03:38:52.564Z,99949.73
2022-08-05T03:39:58.653Z,99949.68
2022-08-05T03:40:51.103Z,99951.48
2022-08-05T03:41:52.535Z,99953.02
2022-08-05T03:42:52.602Z,99951.89
2022-08-05T03:44:08.633Z,99949.17
2022-08-05T03:44:52.431Z,99954.34
2022-08-05T03:45:55.168Z,99952.34
2022-08-05T03:46:54.920Z,99949.62
2022-08-05T03:47:56.841Z,99952.2
2022-08-05T03:48:54.919Z,99950.2
2022-08-05T03:49:55.094Z,99948.22
2022-08-05T03:52:38.841Z,99944.77
2022-08-05T03:55:34.007Z,99950.8
2022-08-05T03:55:53.787Z,99948.36
2022-08-05T03:56:01.121Z,99953.97
2022-08-05T03:56:10.514Z,99948.66
2022-08-05T03:57:16.453Z,99952.34
2022-08-05T03:58:09.714Z,99955.95
2022-08-05T03:59:09.297Z,99953
2022-08-05T04:00:08.234Z,99951.53
2022-08-05T04:01:08.478Z,99950.31
2022-08-05T04:02:14.728Z,99950.78
2022-08-05T04:03:28.631Z,99952.46
2022-08-05T04:04:16.907Z,99953.65
2022-08-05T04:05:19.493Z,99950.55
2022-08-05T04:06:20.562Z,99953.63
2022-08-05T04:07:20.283Z,99958.64
2022-08-05T04:08:36.094Z,99949.27
2022-08-05T04:09:26.443Z,99957.21
2022-08-05T04:10:23.833Z,99955.87
2022-08-05T04:11:24.621Z,99954.31
2022-08-05T04:12:26.417Z,99960.25
2022-08-05T04:13:49.401Z,99959.2
2022-08-05T04:14:30.392Z,99956.38
2022-08-05T04:15:33.290Z,99957.67
2022-08-05T04:16:33.184Z,99957.68
2022-08-05T04:17:55.806Z,99960.12
2022-08-05T04:18:35.974Z,99959.95
2022-08-05T04:20:38.593Z,99962.28
2022-08-05T04:22:09.009Z,99965.44
2022-08-05T04:22:40.100Z,99964.78
2022-08-05T04:24:05.827Z,99963.81
2022-08-05T04:24:44.444Z,99963.23
2022-08-05T04:25:57.301Z,99962.98
2022-08-05T04:26:45.207Z,99962.93
2022-08-05T04:27:56.859Z,99958.17
2022-08-05T04:28:51.193Z,99963.87
2022-08-05T04:29:49.529Z,99967.06
2022-08-05T04:30:49.380Z,99964.34
2022-08-05T04:31:49.741Z,99961.45
2022-08-05T04:32:49.733Z,99962.87
2022-08-05T04:34:19.378Z,99964.23
2022-08-05T04:34:51.192Z,99963.09
2022-08-05T04:36:16.798Z,99964.58
2022-08-05T04:36:55.735Z,99960.77
2022-08-05T04:38:02.215Z,99964.96
2022-08-05T04:38:57.946Z,99960.85
2022-08-05T04:39:57.995Z,99959.61
2022-08-05T04:40:57.982Z,99961.75
2022-08-05T04:41:58.260Z,99966.6
2022-08-05T04:42:57.960Z,99964.2
2022-08-05T04:43:58.048Z,99962.91
2022-08-05T04:44:58.116Z,99965.93
2022-08-05T04:45:58.121Z,99960.84
2022-08-05T04:46:58.986Z,99963.73
2022-08-05T04:49:01.826Z,99963.7
2022-08-05T04:50:11.070Z,99962.62
2022-08-05T04:51:11.435Z,99966.93
2022-08-05T04:52:08.179Z,99962.62
2022-08-05T04:53:09.195Z,99966.55
2022-08-05T04:54:08.147Z,99964.91
2022-08-05T04:55:14.016Z,99961.86
2022-08-05T04:56:32.275Z,99965.06
2022-08-05T04:57:13.141Z,99964.58
2022-08-05T04:58:14.593Z,99966.74
2022-08-05T04:59:21.923Z,99965.55
2022-08-05T05:00:15.845Z,99967.75
2022-08-05T05:01:15.511Z,99963.69
2022-08-05T05:02:37.739Z,99966.55
2022-08-05T05:03:17.863Z,99965.27
2022-08-05T05:04:16.868Z,99966.05
2022-08-05T05:05:28.542Z,99966.66
2022-08-05T05:06:40.698Z,99965.58
2022-08-05T05:07:29.529Z,99964.55
2022-08-05T05:08:30.104Z,99971.09
2022-08-05T05:09:27.032Z,99970.16
2022-08-05T05:10:27.274Z,99964.6
2022-08-05T05:11:33.298Z,99961.28
2022-08-05T05:12:28.531Z,99966.8
2022-08-05T05:13:32.390Z,99962.99
2022-08-05T05:14:32.006Z,99960.08
2022-08-05T05:15:57.395Z,99960.59
2022-08-05T05:16:32.375Z,99962.12
2022-08-05T05:18:34.293Z,99962.67
2022-08-05T05:19:36.961Z,99963.42
2022-08-05T05:20:35.610Z,99961.62
2022-08-05T05:21:35.672Z,99963.14
2022-08-05T05:22:35.885Z,99962.62
2022-08-05T05:23:39.007Z,99963.46
2022-08-05T05:24:59.042Z,99967.77
2022-08-05T05:25:41.346Z,99965.24
2022-08-05T05:26:40.429Z,99968.05
2022-08-05T05:27:45.528Z,99964.73
2022-08-05T05:28:45.071Z,99969.58
2022-08-05T05:30:04.497Z,99967.66
2022-08-05T05:30:44.478Z,99966.45
2022-08-05T05:31:46.686Z,99971.12
2022-08-05T05:32:46.479Z,99967.53
2022-08-05T05:34:02.203Z,99968.58
2022-08-05T05:34:49.960Z,99969.27
2022-08-05T05:35:49.682Z,99962.47
2022-08-05T05:36:51.245Z,99962.22
2022-08-05T05:38:01.285Z,99962.17
2022-08-05T05:38:53.939Z,99965.94
2022-08-05T05:39:54.007Z,99962.66
2022-08-05T05:40:54.197Z,99965.47
2022-08-05T05:41:54.514Z,99967.33
2022-08-05T05:42:54.238Z,99969.27
2022-08-05T05:43:57.420Z,99966.36
2022-08-05T05:44:59.547Z,99963.22
2022-08-05T05:45:56.643Z,99964.57
2022-08-05T05:46:58.086Z,99964
2022-08-05T05:48:06.129Z,99969.55
2022-08-05T05:49:00.157Z,99968.64
2022-08-05T05:50:04.315Z,99970.26
2022-08-05T05:51:14.940Z,99973.94
2022-08-05T05:52:08.111Z,99972.67
2022-08-05T05:53:21.052Z,99973.97
2022-08-05T05:54:11.636Z,99973.41
2022-08-05T05:55:13.644Z,99973.7
2022-08-05T05:56:10.830Z,99971.8
2022-08-05T05:57:13.441Z,99969.52
2022-08-05T05:58:10.898Z,99966.33
2022-08-05T05:59:11.018Z,99969.55
2022-08-05T06:00:15.710Z,99968.23
2022-08-05T06:01:15.334Z,99963.97
2022-08-05T06:02:13.415Z,99964.22
2022-08-05T06:03:40.198Z,99962.89
2022-08-05T06:04:15.111Z,99965.39
2022-08-05T06:05:16.504Z,99966.11
2022-08-05T06:06:15.023Z,99965.39
2022-08-05T06:07:15.009Z,99962.23
2022-08-05T06:08:15.031Z,99961.69
2022-08-05T06:09:36.296Z,99968.36
2022-08-05T06:10:20.589Z,99967.19
2022-08-05T06:11:20.286Z,99967.28
2022-08-05T06:12:20.327Z,99966.05
2022-08-05T06:13:20.326Z,99960.34
2022-08-05T06:14:20.459Z,99964.24
2022-08-05T06:15:24.264Z,99966.58
2022-08-05T06:16:29.146Z,99968.27
2022-08-05T06:17:53.010Z,99969.13
2022-08-05T06:18:31.068Z,99967.34
2022-08-05T06:19:34.478Z,99970.28
2022-08-05T06:20:31.752Z,99970.87
2022-08-05T06:21:37.183Z,99971.95
2022-08-05T06:22:35.266Z,99971.91
2022-08-05T06:23:43.604Z,99975.14
2022-08-05T06:24:36.725Z,99971.73
2022-08-05T06:26:12.868Z,99964.72
2022-08-05T06:26:37.437Z,99970.73
2022-08-05T06:28:10.904Z,99972.89
2022-08-05T06:28:38.679Z,99967.36
2022-08-05T06:29:46.480Z,99968.2
2022-08-05T06:30:43.569Z,99968.8
2022-08-05T06:31:43.647Z,99964.52
2022-08-05T06:32:43.622Z,99967.68
2022-08-05T06:34:07.700Z,99971.02
2022-08-05T06:34:45.101Z,99966.44
2022-08-05T06:36:07.936Z,99967.99
2022-08-05T06:36:56.693Z,99963.97
2022-08-05T06:37:57.020Z,99965.45
2022-08-05T06:38:50.512Z,99966.26
2022-08-05T06:39:50.554Z,99966.25
2022-08-05T06:40:50.512Z,99964.33
2022-08-05T06:41:50.416Z,99964.75
2022-08-05T06:42:51.727Z,99965.55
2022-08-05T06:43:58.189Z,99963.03
2022-08-05T06:44:51.905Z,99961.41
2022-08-05T06:46:03.854Z,99962.44
2022-08-05T06:46:55.046Z,99967.39
2022-08-05T06:48:36.927Z,99960.04
2022-08-05T06:48:59.240Z,99963.28
2022-08-05T06:50:01.495Z,99962.09
2022-08-05T06:50:56.966Z,99960.06
2022-08-05T06:51:56.453Z,99964.59
2022-08-05T06:52:58.540Z,99965.1
2022-08-05T06:53:57.066Z,99967.42
2022-08-05T06:54:56.440Z,99967.48
2022-08-05T06:55:59.920Z,99961.22
2022-08-05T06:57:56.623Z,99960.61
2022-08-05T06:58:03.469Z,99962.45
2022-08-05T06:58:59.528Z,99961.62
2022-08-05T06:59:59.650Z,99962.56
2022-08-05T07:01:00.618Z,99963.77
2022-08-05T07:01:59.698Z,99962.52
2022-08-05T07:02:59.961Z,99965.65
2022-08-05T07:04:00.734Z,99960.15
2022-08-05T07:04:59.751Z,99962.26
2022-08-05T07:06:00.202Z,99957.86
2022-08-05T07:06:59.768Z,99959.97
2022-08-05T07:07:59.782Z,99955.46
2022-08-05T07:09:04.204Z,99955.81
2022-08-05T07:10:03.349Z,99956.74
2022-08-05T07:11:02.009Z,99960.98
2022-08-05T07:12:01.109Z,99954.73
2022-08-05T07:13:01.165Z,99959.48
2022-08-05T07:14:01.426Z,99958.61
2022-08-05T07:15:01.358Z,99956.77
2022-08-05T07:16:04.633Z,99954.06
2022-08-05T07:18:08.413Z,99953.98
2022-08-05T07:18:08.755Z,99958.54
2022-08-05T07:19:06.261Z,99957.8
2022-08-05T07:21:07.975Z,99952.88
2022-08-05T07:22:08.100Z,99951.61
2022-08-05T07:23:07.888Z,99959.11
2022-08-05T07:24:11.473Z,99960.8
2022-08-05T07:25:23.119Z,99956.28
2022-08-05T07:26:11.253Z,99957.38
2022-08-05T07:27:11.330Z,99957.88
2022-08-05T07:28:17.107Z,99959.7
2022-08-05T07:29:14.213Z,99958.6
2022-08-05T07:30:23.975Z,99954.95
2022-08-05T07:31:15.378Z,99956.77
2022-08-05T07:32:15.259Z,99955.33
2022-08-05T07:33:16.636Z,99959.4
2022-08-05T07:34:15.492Z,99956.76
2022-08-05T07:36:04.063Z,99961.09
2022-08-05T07:36:20.643Z,99957.09
2022-08-05T07:37:18.733Z,99960.41
2022-08-05T07:38:32.322Z,99956.44
2022-08-05T07:39:37.012Z,99964.55
2022-08-05T07:40:31.515Z,99963.89
2022-08-05T07:42:07.210Z,99960.57
2022-08-05T07:42:33.410Z,99961.5
2022-08-05T07:43:30.403Z,99963.37
2022-08-05T07:44:30.441Z,99958.69
2022-08-05T07:45:31.280Z,99956.98
2022-08-05T07:46:33.687Z,99960.98
2022-08-05T07:47:42.573Z,99958.03
2022-08-05T07:49:01.798Z,99961.27
2022-08-05T07:49:35.579Z,99960.9
2022-08-05T07:50:40.141Z,99960.41
2022-08-05T07:51:53.625Z,99960.2
2022-08-05T07:52:43.292Z,99963.79
2022-08-05T07:53:50.381Z,99958.34
2022-08-05T07:54:47.604Z,99956
2022-08-05T07:56:05.446Z,99960.49
2022-08-05T07:57:01.810Z,99957.58
2022-08-05T07:57:56.322Z,99956.06
2022-08-05T07:58:57.242Z,99955.93
2022-08-05T07:59:55.658Z,99956.21
2022-08-05T08:00:56.025Z,99956.66
2022-08-05T08:01:57.495Z,99957.46
2022-08-05T08:03:15.016Z,99957.03
2022-08-05T08:03:57.072Z,99955.78
2022-08-05T08:04:57.218Z,99954.62
2022-08-05T08:05:57.213Z,99952.8
2022-08-05T08:06:57.134Z,99956.31
2022-08-05T08:07:59.850Z,99954.16
2022-08-05T08:08:57.301Z,99950.42
2022-08-05T08:09:57.215Z,99950.52
2022-08-05T08:10:57.328Z,99946.74
2022-08-05T08:12:00.090Z,99949.47
2022-08-05T08:13:00.709Z,99950.05
2022-08-05T08:14:01.288Z,99950.52
2022-08-05T08:15:02.439Z,99954.26
2022-08-05T08:16:34.606Z,99949.23
2022-08-05T08:17:01.855Z,99950.41
2022-08-05T08:18:03.512Z,99951.62
2022-08-05T08:19:03.510Z,99950.75
2022-08-05T08:20:42.768Z,99947.09
2022-08-05T08:21:09.858Z,99948.36
2022-08-05T08:22:09.383Z,99946.48
2022-08-05T08:24:02.164Z,99949.83
2022-08-05T08:24:14.239Z,99943
2022-08-05T08:25:15.654Z,99947.91
2022-08-05T08:26:14.034Z,99948.41
2022-08-05T08:27:16.616Z,99949.22
2022-08-05T08:28:18.504Z,99948.76
2022-08-05T08:29:45.155Z,99945.53
2022-08-05T08:30:27.617Z,99945.35
2022-08-05T08:31:21.195Z,99946.45
2022-08-05T08:32:27.744Z,99946.89
2022-08-05T08:33:25.182Z,99949.96
2022-08-05T08:34:30.429Z,99943.69
2022-08-05T08:35:35.179Z,99946.56
2022-08-05T08:36:47.656Z,99945.31
2022-08-05T08:37:34.248Z,99943.33
2022-08-05T08:38:35.718Z,99944.81
2022-08-05T08:39:37.608Z,99943.02
2022-08-05T08:40:35.362Z,99936.75
2022-08-05T08:41:52.344Z,99935.55
2022-08-05T08:42:50.244Z,99942.11
2022-08-05T08:45:20.311Z,99939.8
2022-08-05T08:45:24.352Z,99946.73
2022-08-05T08:45:41.855Z,99944.38
2022-08-05T08:46:41.723Z,99941.27
2022-08-05T08:48:07.112Z,99941.86
2022-08-05T08:49:06.064Z,99945.8
2022-08-05T08:50:22.384Z,99944.26
2022-08-05T08:51:03.615Z,99944.3
2022-08-05T08:53:00.500Z,99939.75
2022-08-05T08:53:57.931Z,99940.38
2022-08-05T08:54:57.844Z,99932.33
2022-08-05T08:56:03.748Z,99933.42
2022-08-05T08:57:02.382Z,99930.32
2022-08-05T08:58:02.549Z,99928.7
2022-08-05T08:59:04.817Z,99927.82
2022-08-05T09:00:06.800Z,99926.84
2022-08-05T09:01:07.407Z,99931.44
2022-08-05T09:02:08.671Z,99933.34
2022-08-05T09:03:08.106Z,99923.34
2022-08-05T09:04:07.574Z,99929.99
2022-08-05T09:05:17.835Z,99922.95
2022-08-05T09:06:12.124Z,99927.27
2022-08-05T09:07:28.250Z,99925.2
2022-08-05T09:08:15.477Z,99921.83
2022-08-05T09:09:15.715Z,99924.33
2022-08-05T09:10:15.722Z,99922.98
2022-08-05T09:11:15.838Z,99924.31
2022-08-05T09:12:20.670Z,99919.42
2022-08-05T09:13:19.830Z,99922.59
2022-08-05T09:14:58.530Z,99921.91
2022-08-05T09:15:22.167Z,99922.23
2022-08-05T09:16:22.243Z,99921.12
2022-08-05T09:17:42.809Z,99922.95
2022-08-05T09:18:25.470Z,99920.52
2022-08-05T09:19:27.703Z,99922.36
2022-08-05T09:20:36.312Z,99924.52
2022-08-05T09:22:23.489Z,99919.36
2022-08-05T09:23:43.432Z,99920.9
2022-08-05T09:24:38.293Z,99921.48
2022-08-05T09:26:01.958Z,99920.84
2022-08-05T09:26:36.876Z,99917.45
2022-08-05T09:28:05.497Z,99912.58
2022-08-05T09:28:39.763Z,99918.83
2022-08-05T09:29:47.615Z,99914.05
2022-08-05T09:30:42.550Z,99913.95
2022-08-05T09:32:40.193Z,99917.39
2022-08-05T09:32:46.353Z,99917.52
2022-08-05T09:33:47.821Z,99917.1
2022-08-05T09:36:59.775Z,99909.48
2022-08-05T09:38:12.009Z,99908.92
2022-08-05T09:38:59.615Z,99911.33
2022-08-05T09:39:58.469Z,99907.41
2022-08-05T09:42:03.460Z,99905.52
2022-08-05T09:43:00.565Z,99904.17
2022-08-05T09:44:00.191Z,99902.79
2022-08-05T09:46:05.103Z,99901.77
2022-08-05T09:46:06.378Z,99906.33
2022-08-05T09:49:22.141Z,99900.05
2022-08-05T09:50:12.603Z,99904.91
2022-08-05T09:51:15.892Z,99903.59
2022-08-05T09:52:22.564Z,99899.42
2022-08-05T09:53:25.763Z,99898.78
2022-08-05T09:55:56.675Z,99892.12
2022-08-05T09:56:26.148Z,99902.31
2022-08-05T09:58:25.272Z,99903.13
2022-08-05T09:59:27.614Z,99894.91
2022-08-05T10:00:24.773Z,99896.95
2022-08-05T10:01:31.881Z,99900.84
2022-08-05T10:02:33.477Z,99892.77
2022-08-05T10:03:38.643Z,99894.37
2022-08-05T10:05:35.453Z,99886.45
2022-08-05T10:06:35.221Z,99887.94
2022-08-05T10:08:38.421Z,99886.11
2022-08-05T10:11:40.312Z,99886.77
2022-08-05T10:13:47.586Z,99889.25
2022-08-05T10:14:45.517Z,99888.86
2022-08-05T10:15:45.497Z,99890.18
2022-08-05T10:16:52.785Z,99892.45
2022-08-05T10:18:55.386Z,99890.69
2022-08-05T10:20:04.320Z,99890.84
2022-08-05T10:20:58.844Z,99887.22
2022-08-05T10:21:58.282Z,99885.3
2022-08-05T10:22:58.657Z,99883.05
2022-08-05T10:24:00.462Z,99885.67
2022-08-05T10:24:58.488Z,99884.3
2022-08-05T10:25:59.620Z,99888.7
2022-08-05T10:27:00.570Z,99883.53
2022-08-05T10:28:16.819Z,99888.36
2022-08-05T10:28:59.530Z,99888.98
2022-08-05T10:30:41.540Z,99882.62
2022-08-05T10:32:52.972Z,99881.94
2022-08-05T10:32:54.347Z,99887.06
2022-08-05T10:33:05.626Z,99887.56
2022-08-05T10:34:07.165Z,99881.34
2022-08-05T10:35:06.140Z,99885.91
2022-08-05T10:36:06.069Z,99882.12
2022-08-05T10:37:06.168Z,99884.78
2022-08-05T10:38:08.288Z,99886.16
2022-08-05T10:39:10.318Z,99881.96
2022-08-05T10:41:23.572Z,99877.92
2022-08-05T10:42:32.452Z,99877.53
2022-08-05T10:44:19.137Z,99879.61
2022-08-05T10:45:41.674Z,99876.61
2022-08-05T10:46:23.810Z,99873.36
2022-08-05T10:47:27.126Z,99881.51
2022-08-05T10:48:34.290Z,99871.05
2022-08-05T10:49:27.052Z,99877
2022-08-05T10:50:36.220Z,99871.95
2022-08-05T10:51:48.680Z,99872.5
2022-08-05T10:52:39.602Z,99869.53
2022-08-05T10:54:56.137Z,99866.11
2022-08-05T10:56:49.268Z,99862.16
2022-08-05T10:57:46.507Z,99865.02
2022-08-05T10:58:50.528Z,99861.84
2022-08-05T11:00:03.338Z,99858.48
2022-08-05T11:00:54.935Z,99864.98
2022-08-05T11:04:58.476Z,99857
2022-08-05T11:07:03.903Z,99855.61
2022-08-05T11:08:21.683Z,99859.88
2022-08-05T11:15:21.365Z,99853.99
2022-08-05T11:16:22.808Z,99851.85
2022-08-05T11:18:09.797Z,99849.09
2022-08-05T11:18:29.749Z,99850.3
2022-08-05T11:20:16.641Z,99847.08
2022-08-05T11:21:31.586Z,99850.22
2022-08-05T11:24:32.292Z,99849.46
2022-08-05T11:26:04.486Z,99845.95
2022-08-05T11:26:33.644Z,99840.11
2022-08-05T11:27:50.860Z,99847.67
2022-08-05T11:28:37.374Z,99843.09
2022-08-05T11:29:34.791Z,99849.53
2022-08-05T11:31:53.902Z,99845.04
2022-08-05T11:32:36.764Z,99841.77
2022-08-05T11:34:39.435Z,99844.33
2022-08-05T11:36:43.857Z,99840.94
2022-08-05T11:38:28.003Z,99832.44
2022-08-05T11:39:49.908Z,99834.84
2022-08-05T11:42:01.658Z,99836.38
2022-08-05T11:42:51.498Z,99830.42
2022-08-05T11:45:00.791Z,99831.38
2022-08-05T11:46:30.616Z,99828.95
2022-08-05T11:47:10.450Z,99825.44
2022-08-05T11:48:07.743Z,99830.89
2022-08-05T11:49:09.972Z,99833.52
2022-08-05T11:50:08.260Z,99828.18
2022-08-05T11:51:08.297Z,99825.77
2022-08-05T11:52:11.710Z,99822.34
2022-08-05T11:53:09.819Z,99823.36
2022-08-05T11:54:08.857Z,99821.66
2022-08-05T11:55:11.438Z,99821.84
2022-08-05T11:56:11.340Z,99825.34
2022-08-05T11:57:24.497Z,99818.85
2022-08-05T11:58:13.185Z,99817.14
2022-08-05T11:59:21.488Z,99818.23
2022-08-05T12:00:28.704Z,99818.59
2022-08-05T12:01:22.210Z,99812.9
2022-08-05T12:03:28.406Z,99811.68
2022-08-05T12:04:23.680Z,99810.52
2022-08-05T12:05:32.316Z,99815.02
2022-08-05T12:06:27.077Z,99813.98
2022-08-05T12:08:02.762Z,99812.79
2022-08-05T12:08:28.146Z,99810.48
2022-08-05T12:09:52.660Z,99809.54
2022-08-05T12:10:39.068Z,99811.45
2022-08-05T12:11:40.326Z,99810.44
2022-08-05T12:12:33.763Z,99810.69
2022-08-05T12:13:49.584Z,99806.84
2022-08-05T12:14:38.065Z,99809.16
2022-08-05T12:15:43.081Z,99804.08
2022-08-05T12:16:45.487Z,99803.83
2022-08-05T12:18:02.721Z,99803.42
2022-08-05T12:18:49.033Z,99805.1
2022-08-05T12:20:26.488Z,99800.25
2022-08-05T12:20:49.698Z,99806.48
2022-08-05T12:21:50.650Z,99800.51
2022-08-05T12:22:51.817Z,99804.36
2022-08-05T12:24:52.314Z,99799.48
2022-08-05T12:25:53.376Z,99795.09
2022-08-05T12:26:53.950Z,99792.83
2022-08-05T12:27:52.866Z,99794.38
2022-08-05T12:28:52.355Z,99790.98
2022-08-05T12:30:03.353Z,99796.2
2022-08-05T12:30:56.785Z,99797.61
2022-08-05T12:32:01.954Z,99796.7
2022-08-05T12:33:07.196Z,99789.38
2022-08-05T12:35:05.857Z,99795.07
2022-08-05T12:36:08.146Z,99793.36
2022-08-05T12:37:09.366Z,99797.05
2022-08-05T12:38:06.381Z,99794.5
2022-08-05T12:39:07.053Z,99794.85
2022-08-05T12:40:10.818Z,99790.02
2022-08-05T12:41:13.507Z,99792.48
2022-08-05T12:42:14.895Z,99793.34
2022-08-05T12:43:11.681Z,99791.51
2022-08-05T12:44:14.263Z,99792.11
2022-08-05T12:45:12.940Z,99789.01
2022-08-05T12:46:23.640Z,99786.64
2022-08-05T12:48:27.743Z,99790.44
2022-08-05T12:49:20.351Z,99790.57
2022-08-05T12:50:22.727Z,99785.08
2022-08-05T12:52:13.117Z,99786.46
2022-08-05T12:52:29.573Z,99782.22
2022-08-05T12:53:36.976Z,99783.45
2022-08-05T12:54:33.435Z,99778.55
2022-08-05T12:55:33.066Z,99779.16
2022-08-05T12:56:34.116Z,99775.52
2022-08-05T12:58:50.633Z,99775.83
2022-08-05T12:58:51.342Z,99776.34
2022-08-05T13:02:02.062Z,99777.61
2022-08-05T13:02:02.672Z,99780.53